createdAt,value
2022-10-05T00:00:15.627Z,2.53
2022-10-05T00:02:55.757Z,1.90
2022-10-05T00:05:31.540Z,2.35
2022-10-05T00:08:05.179Z,1.25
2022-10-05T00:10:35.882Z,1.85
2022-10-05T00:13:04.789Z,2.78
2022-10-05T00:15:34.649Z,2.25
2022-10-05T00:18:08.130Z,1.30
2022-10-05T00:20:38.005Z,2.55
2022-10-05T00:23:11.951Z,2.53
2022-10-05T00:25:43.094Z,5.05
2022-10-05T00:28:19.462Z,2.65
2022-10-05T00:31:19.401Z,2.28
2022-10-05T00:34:07.813Z,1.08
2022-10-05T00:36:44.968Z,3.38
2022-10-05T00:39:19.051Z,2.15
2022-10-05T00:42:28.028Z,1.98
2022-10-05T00:45:01.341Z,2.72
2022-10-05T00:47:36.677Z,2.10
2022-10-05T00:50:19.117Z,2.13
2022-10-05T00:52:54.419Z,3.45
2022-10-05T00:55:36.132Z,1.13
2022-10-05T00:58:10.467Z,2.30
2022-10-05T01:00:43.896Z,3.33
2022-10-05T01:03:18.060Z,0.88
2022-10-05T01:05:54.011Z,5.93
2022-10-05T01:08:35.133Z,2.67
2022-10-05T01:11:11.728Z,1.35
2022-10-05T01:13:48.755Z,1.80
2022-10-05T01:16:21.470Z,2.92
2022-10-05T01:18:52.946Z,2.05
2022-10-05T01:21:49.563Z,4.43
2022-10-05T01:24:45.079Z,2.08
2022-10-05T01:27:21.304Z,2.17
2022-10-05T01:30:18.385Z,4.10
2022-10-05T01:33:27.537Z,1.85
2022-10-05T01:36:01.339Z,2.53
2022-10-05T01:38:37.642Z,3.17
2022-10-05T01:41:12.066Z,2.65
2022-10-05T01:43:45.635Z,4.35
2022-10-05T01:46:31.603Z,1.95
2022-10-05T01:49:08.911Z,3.38
2022-10-05T01:51:40.297Z,2.85
2022-10-05T01:54:15.793Z,4.43
2022-10-05T01:56:49.529Z,6.53
2022-10-05T01:59:27.522Z,3.75
2022-10-05T02:02:02.482Z,4.20
2022-10-05T02:05:01.005Z,5.55
2022-10-05T02:07:25.678Z,5.82
2022-10-05T02:09:59.170Z,3.00
2022-10-05T02:12:37.697Z,2.75
2022-10-05T02:15:12.559Z,3.60
2022-10-05T02:17:56.867Z,2.88
2022-10-05T02:20:39.456Z,1.67
2022-10-05T02:23:34.384Z,3.35
2022-10-05T02:26:04.249Z,4.65
2022-10-05T02:28:37.670Z,3.53
2022-10-05T02:31:12.797Z,5.22
2022-10-05T02:33:41.528Z,3.72
2022-10-05T02:36:20.408Z,3.40
2022-10-05T02:39:05.532Z,2.40
2022-10-05T02:41:39.495Z,4.32
2022-10-05T02:44:12.858Z,4.70
2022-10-05T02:46:53.100Z,4.75
2022-10-05T02:49:29.642Z,2.63
2022-10-05T02:52:06.129Z,6.82
2022-10-05T02:54:40.157Z,3.50
2022-10-05T02:57:30.807Z,4.03
2022-10-05T03:00:04.839Z,3.05
2022-10-05T03:02:38.215Z,3.30
2022-10-05T03:06:00.937Z,2.30
2022-10-05T03:08:35.696Z,3.63
2022-10-05T03:11:08.333Z,3.65
2022-10-05T03:13:41.610Z,4.22
2022-10-05T03:16:19.973Z,2.78
2022-10-05T03:18:52.690Z,2.65
2022-10-05T03:21:57.710Z,3.35
2022-10-05T03:24:58.558Z,4.70
2022-10-05T03:27:39.482Z,6.78
2022-10-05T03:30:11.254Z,3.88
2022-10-05T03:32:46.350Z,4.47
2022-10-05T03:35:20.588Z,5.03
2022-10-05T03:37:55.262Z,4.45
2022-10-05T03:40:35.471Z,3.72
2022-10-05T03:43:34.399Z,9.27
2022-10-05T03:46:10.287Z,3.70
2022-10-05T03:48:42.266Z,3.53
2022-10-05T03:51:18.747Z,5.10
2022-10-05T03:53:51.040Z,3.38
2022-10-05T03:56:31.815Z,2.65
2022-10-05T03:59:03.657Z,3.30
2022-10-05T04:01:43.423Z,2.60
2022-10-05T04:04:14.076Z,3.90
2022-10-05T04:06:52.581Z,4.93
2022-10-05T04:09:27.816Z,3.97
2022-10-05T04:12:11.201Z,4.97
2022-10-05T04:14:44.951Z,5.03
2022-10-05T04:17:17.613Z,2.65
2022-10-05T04:19:53.151Z,3.47
2022-10-05T04:22:27.624Z,3.90
2022-10-05T04:25:03.377Z,2.92
2022-10-05T04:27:39.338Z,2.80
2022-10-05T04:30:19.275Z,4.50
2022-10-05T04:32:50.368Z,3.78
2022-10-05T04:35:28.742Z,3.03
2022-10-05T04:38:01.893Z,2.10
2022-10-05T04:41:22.136Z,1.95
2022-10-05T04:44:01.541Z,5.32
2022-10-05T04:46:37.047Z,5.65
2022-10-05T04:49:20.965Z,1.90
2022-10-05T04:51:54.013Z,2.80
2022-10-05T04:54:28.626Z,1.98
2022-10-05T04:56:59.259Z,1.85
2022-10-05T04:59:42.970Z,3.03
2022-10-05T05:02:18.561Z,4.15
2022-10-05T05:05:06.012Z,3.17
2022-10-05T05:07:39.578Z,1.13
2022-10-05T05:10:22.947Z,2.17
2022-10-05T05:12:58.093Z,2.60
2022-10-05T05:15:44.587Z,1.70
2022-10-05T05:18:37.226Z,1.67
2022-10-05T05:21:27.172Z,1.38
2022-10-05T05:23:59.656Z,2.55
2022-10-05T05:26:34.532Z,2.35
2022-10-05T05:29:10.432Z,1.85
2022-10-05T05:31:46.868Z,5.30
2022-10-05T05:34:27.609Z,1.13
2022-10-05T05:36:59.364Z,2.72
2022-10-05T05:39:29.439Z,2.53
2022-10-05T05:42:02.273Z,1.02
2022-10-05T05:44:36.476Z,1.55
2022-10-05T05:47:15.995Z,2.50
2022-10-05T05:49:51.625Z,5.13
2022-10-05T05:52:22.094Z,2.75
2022-10-05T05:54:53.964Z,3.10
2022-10-05T05:57:25.547Z,1.23
2022-10-05T05:59:56.808Z,1.17
2022-10-05T06:02:28.899Z,1.55
2022-10-05T06:05:02.471Z,3.55
2022-10-05T06:07:32.711Z,2.25
2022-10-05T06:10:07.547Z,3.38
2022-10-05T06:12:39.345Z,6.45
2022-10-05T06:15:24.136Z,2.85
2022-10-05T06:17:58.972Z,1.45
2022-10-05T06:20:30.144Z,2.92
2022-10-05T06:23:06.372Z,1.30
2022-10-05T06:25:55.290Z,3.60
2022-10-05T06:28:28.519Z,2.17
2022-10-05T06:31:02.831Z,1.48
2022-10-05T06:33:43.862Z,2.25
2022-10-05T06:36:18.589Z,1.88
2022-10-05T06:38:57.759Z,3.75
2022-10-05T06:41:30.750Z,2.13
2022-10-05T06:44:00.401Z,2.38
2022-10-05T06:46:32.217Z,2.90
2022-10-05T06:49:26.767Z,3.50
2022-10-05T06:52:02.364Z,1.95
2022-10-05T06:54:44.430Z,1.70
2022-10-05T06:57:17.720Z,1.63
2022-10-05T06:59:51.122Z,2.40
2022-10-05T07:02:24.664Z,7.05
2022-10-05T07:05:09.502Z,5.70
2022-10-05T07:07:45.312Z,3.88
2022-10-05T07:10:20.452Z,1.77
2022-10-05T07:12:58.791Z,1.60
2022-10-05T07:15:35.772Z,3.38
2022-10-05T07:18:10.752Z,2.90
2022-10-05T07:20:59.302Z,1.83
2022-10-05T07:23:35.515Z,1.75
2022-10-05T07:26:06.730Z,1.92
2022-10-05T07:28:38.920Z,11.60
2022-10-05T07:31:11.766Z,1.88
2022-10-05T07:33:43.408Z,2.83
2022-10-05T07:36:39.339Z,2.83
2022-10-05T07:39:20.258Z,2.50
2022-10-05T07:41:54.936Z,3.58
2022-10-05T07:44:35.893Z,1.67
2022-10-05T07:47:11.070Z,4.17
2022-10-05T07:49:50.133Z,3.40
2022-10-05T07:52:21.460Z,3.35
2022-10-05T07:54:57.490Z,3.38
2022-10-05T07:57:28.748Z,2.40
2022-10-05T08:00:00.940Z,2.97
2022-10-05T08:02:31.146Z,2.08
2022-10-05T08:05:08.309Z,6.00
2022-10-05T08:07:38.075Z,3.90
2022-10-05T08:10:20.105Z,2.00
2022-10-05T08:13:01.397Z,3.03
2022-10-05T08:15:34.226Z,9.15
2022-10-05T08:18:06.388Z,3.80
2022-10-05T08:20:42.384Z,4.43
2022-10-05T08:23:15.368Z,3.90
2022-10-05T08:25:48.203Z,9.77
2022-10-05T08:28:20.556Z,4.55
2022-10-05T08:30:57.755Z,3.08
2022-10-05T08:33:27.507Z,1.90
2022-10-05T08:36:04.745Z,2.03
2022-10-05T08:38:34.699Z,3.35
2022-10-05T08:41:21.702Z,2.65
2022-10-05T08:44:06.464Z,7.75
2022-10-05T08:46:50.391Z,3.08
2022-10-05T08:49:43.064Z,2.35
2022-10-05T08:52:18.478Z,4.63
2022-10-05T08:55:00.048Z,2.28
2022-10-05T08:57:44.079Z,3.38
2022-10-05T09:00:16.055Z,1.48
2022-10-05T09:02:55.017Z,1.48
2022-10-05T09:05:30.749Z,3.30
2022-10-05T09:08:07.399Z,3.40
2022-10-05T09:10:51.617Z,2.63
2022-10-05T09:13:28.546Z,2.28
2022-10-05T09:16:20.683Z,2.92
2022-10-05T09:19:18.895Z,2.35
2022-10-05T09:21:57.464Z,2.60
2022-10-05T09:24:29.540Z,3.00
2022-10-05T09:27:11.926Z,3.22
2022-10-05T09:30:05.247Z,1.60
2022-10-05T09:32:47.771Z,1.80
2022-10-05T09:35:19.966Z,1.55
2022-10-05T09:38:06.552Z,3.05
2022-10-05T09:40:53.555Z,1.60
2022-10-05T09:43:33.797Z,2.55
2022-10-05T09:46:14.825Z,1.92
2022-10-05T09:49:10.916Z,1.48
2022-10-05T09:52:07.159Z,2.70
2022-10-05T09:54:56.940Z,3.78
2022-10-05T09:57:35.987Z,3.38
2022-10-05T10:00:18.011Z,5.18
2022-10-05T10:03:02.444Z,2.60
2022-10-05T10:05:50.632Z,3.05
2022-10-05T10:08:28.654Z,2.45
2022-10-05T10:11:08.535Z,5.68
2022-10-05T10:14:00.358Z,3.35
2022-10-05T10:16:46.469Z,3.83
2022-10-05T10:19:27.388Z,1.90
2022-10-05T10:22:03.964Z,4.55
2022-10-05T10:24:45.517Z,3.17
2022-10-05T10:27:21.136Z,2.88
2022-10-05T10:29:58.547Z,4.53
2022-10-05T10:32:45.577Z,1.77
2022-10-05T10:35:20.596Z,1.70
2022-10-05T10:38:12.883Z,2.25
2022-10-05T10:40:43.651Z,3.50
2022-10-05T10:43:23.819Z,3.80
2022-10-05T10:45:57.597Z,2.92
2022-10-05T10:48:44.665Z,4.65
2022-10-05T10:51:20.529Z,5.57
2022-10-05T10:54:07.276Z,4.95
2022-10-05T10:56:47.709Z,3.58
2022-10-05T10:59:41.550Z,4.60
2022-10-05T11:02:17.630Z,3.20
2022-10-05T11:04:58.200Z,2.67
2022-10-05T11:07:36.804Z,7.22
2022-10-05T11:10:16.012Z,3.20
2022-10-05T11:13:06.425Z,5.50
2022-10-05T11:16:08.493Z,4.45
2022-10-05T11:18:44.685Z,2.80
2022-10-05T11:21:26.305Z,2.25
2022-10-05T11:24:14.623Z,4.50
2022-10-05T11:26:49.101Z,4.50
2022-10-05T11:29:32.632Z,8.88
2022-10-05T11:32:22.041Z,2.83
2022-10-05T11:35:05.226Z,4.43
2022-10-05T11:37:55.892Z,13.95
2022-10-05T11:40:43.697Z,2.22
2022-10-05T11:43:22.962Z,6.10
2022-10-05T11:46:06.190Z,4.72
2022-10-05T11:48:39.739Z,1.90
2022-10-05T11:51:24.041Z,6.82
2022-10-05T11:53:59.325Z,4.30
2022-10-05T11:56:33.911Z,3.35
2022-10-05T11:59:08.284Z,3.13
2022-10-05T12:01:39.962Z,3.40
2022-10-05T12:04:15.454Z,2.08
2022-10-05T12:06:54.123Z,4.00
2022-10-05T12:09:32.057Z,5.55
2022-10-05T12:12:08.275Z,2.13
2022-10-05T12:14:43.149Z,7.05
2022-10-05T12:17:15.553Z,4.28
2022-10-05T12:19:45.982Z,4.18
2022-10-05T12:22:17.335Z,3.10
2022-10-05T12:24:56.052Z,3.08
2022-10-05T12:27:27.703Z,5.55
2022-10-05T12:29:58.181Z,3.83
2022-10-05T12:32:28.692Z,6.20
2022-10-05T12:35:03.243Z,5.07
2022-10-05T12:37:41.417Z,4.78
2022-10-05T12:40:16.579Z,5.60
2022-10-05T12:42:52.180Z,3.28
2022-10-05T12:45:24.409Z,3.65
2022-10-05T12:48:02.697Z,6.60
2022-10-05T12:50:36.699Z,4.93
2022-10-05T12:53:19.613Z,4.78
2022-10-05T12:55:51.101Z,3.17
2022-10-05T12:58:27.100Z,6.70
2022-10-05T13:00:58.504Z,4.40
2022-10-05T13:03:27.742Z,7.13
2022-10-05T13:06:02.648Z,4.68
2022-10-05T13:08:34.885Z,3.20
2022-10-05T13:11:14.072Z,3.53
2022-10-05T13:13:49.917Z,5.07
2022-10-05T13:16:22.614Z,6.57
2022-10-05T13:19:06.485Z,4.93
2022-10-05T13:21:38.708Z,3.55
2022-10-05T13:24:09.688Z,3.47
2022-10-05T13:26:39.577Z,2.60
2022-10-05T13:29:14.808Z,5.07
2022-10-05T13:31:47.958Z,4.50
2022-10-05T13:34:22.892Z,4.18
2022-10-05T13:36:56.351Z,6.22
2022-10-05T13:39:33.138Z,5.57
2022-10-05T13:42:06.483Z,7.22
2022-10-05T13:44:42.025Z,2.70
2022-10-05T13:47:16.967Z,4.45
2022-10-05T13:49:49.372Z,2.55
2022-10-05T13:52:22.395Z,2.67
2022-10-05T13:54:56.586Z,5.72
2022-10-05T13:57:31.730Z,2.67
2022-10-05T14:00:04.733Z,5.10
2022-10-05T14:02:37.506Z,4.90
2022-10-05T14:05:16.895Z,3.88
2022-10-05T14:07:50.973Z,6.70
2022-10-05T14:10:31.390Z,3.15
2022-10-05T14:12:59.987Z,3.35
2022-10-05T14:15:32.308Z,4.88
2022-10-05T14:18:00.740Z,2.75
2022-10-05T14:20:31.126Z,8.38
2022-10-05T14:23:01.826Z,3.85
2022-10-05T14:25:30.707Z,4.95
2022-10-05T14:28:01.800Z,3.20
2022-10-05T14:30:34.020Z,3.25
2022-10-05T14:33:10.478Z,5.10
2022-10-05T14:35:49.094Z,2.17
2022-10-05T14:38:22.622Z,5.05
2022-10-05T14:41:20.777Z,3.20
2022-10-05T14:43:56.859Z,4.93
2022-10-05T14:46:29.324Z,6.97
2022-10-05T14:49:12.582Z,3.85
2022-10-05T14:51:42.392Z,7.47
2022-10-05T14:54:25.210Z,3.47
2022-10-05T14:56:56.535Z,4.55
2022-10-05T14:59:33.186Z,3.75
2022-10-05T15:02:05.208Z,5.05
2022-10-05T15:04:38.424Z,2.45
2022-10-05T15:07:13.679Z,5.82
2022-10-05T15:09:46.166Z,5.07
2022-10-05T15:12:15.996Z,3.72
2022-10-05T15:14:46.308Z,4.78
2022-10-05T15:17:19.684Z,4.97
2022-10-05T15:19:55.669Z,3.33
2022-10-05T15:22:31.788Z,3.00
2022-10-05T15:25:04.802Z,3.63
2022-10-05T15:27:40.560Z,2.15
2022-10-05T15:30:12.120Z,2.58
2022-10-05T15:32:49.858Z,3.22
2022-10-05T15:35:33.035Z,3.65
2022-10-05T15:38:04.262Z,4.75
2022-10-05T15:40:34.619Z,3.85
2022-10-05T15:43:04.821Z,3.13
2022-10-05T15:45:34.925Z,3.45
2022-10-05T15:48:07.079Z,5.18
2022-10-05T15:50:39.137Z,5.95
2022-10-05T15:53:10.151Z,5.30
2022-10-05T15:55:41.110Z,4.63
2022-10-05T15:58:17.681Z,4.78
2022-10-05T16:00:48.899Z,3.22
2022-10-05T16:03:23.694Z,2.67
2022-10-05T16:06:12.035Z,4.45
2022-10-05T16:08:58.578Z,3.15
2022-10-05T16:11:33.428Z,4.38
2022-10-05T16:14:08.361Z,2.22
2022-10-05T16:16:43.415Z,2.63
2022-10-05T16:19:17.447Z,3.72
2022-10-05T16:21:51.642Z,8.70
2022-10-05T16:24:24.799Z,4.13
2022-10-05T16:26:58.315Z,4.85
2022-10-05T16:29:34.094Z,3.40
2022-10-05T16:32:05.425Z,6.68
2022-10-05T16:34:41.754Z,3.80
2022-10-05T16:37:13.494Z,4.78
2022-10-05T16:39:53.675Z,3.55
2022-10-05T16:42:29.546Z,8.38
2022-10-05T16:45:00.278Z,5.15
2022-10-05T16:47:36.409Z,3.75
2022-10-05T16:50:10.674Z,5.18
2022-10-05T16:52:41.388Z,2.45
2022-10-05T16:55:14.061Z,8.32
2022-10-05T16:57:43.379Z,4.80
2022-10-05T17:00:19.434Z,8.48
2022-10-05T17:02:55.223Z,5.78
2022-10-05T17:05:33.011Z,8.60
2022-10-05T17:08:08.550Z,5.57
2022-10-05T17:10:54.408Z,3.50
2022-10-05T17:13:30.334Z,6.40
2022-10-05T17:16:04.240Z,6.20
2022-10-05T17:18:49.419Z,4.03
2022-10-05T17:21:23.827Z,6.43
2022-10-05T17:23:56.283Z,6.07
2022-10-05T17:26:45.391Z,5.20
2022-10-05T17:29:17.030Z,8.85
2022-10-05T17:32:01.510Z,7.05
2022-10-05T17:34:30.365Z,3.90
2022-10-05T17:37:16.018Z,4.72
2022-10-05T17:39:49.624Z,9.10
2022-10-05T17:42:36.247Z,5.32
2022-10-05T17:45:33.268Z,7.60
2022-10-05T17:48:03.041Z,6.40
2022-10-05T17:50:58.179Z,4.78
2022-10-05T17:53:54.570Z,8.00
2022-10-05T17:56:23.322Z,4.00
2022-10-05T17:59:00.644Z,8.05
2022-10-05T18:01:30.556Z,5.57
2022-10-05T18:04:20.718Z,11.77
2022-10-05T18:07:01.229Z,5.03
2022-10-05T18:09:36.255Z,8.85
2022-10-05T18:12:11.670Z,3.88
2022-10-05T18:14:58.597Z,5.72
2022-10-05T18:17:48.547Z,5.28
2022-10-05T18:20:27.218Z,6.72
2022-10-05T18:23:18.806Z,6.10
2022-10-05T18:25:53.582Z,11.75
2022-10-05T18:28:26.202Z,7.57
2022-10-05T18:31:20.080Z,6.13
2022-10-05T18:34:01.573Z,5.35
2022-10-05T18:36:39.513Z,5.75
2022-10-05T18:39:11.501Z,5.55
2022-10-05T18:41:49.155Z,14.55
2022-10-05T18:44:26.313Z,12.77
2022-10-05T18:46:59.534Z,8.35
2022-10-05T18:49:36.376Z,7.47
2022-10-05T18:52:14.833Z,7.55
2022-10-05T18:54:55.304Z,6.72
2022-10-05T18:57:38.040Z,7.93
2022-10-05T19:00:10.108Z,7.57
2022-10-05T19:02:43.439Z,6.97
2022-10-05T19:05:45.871Z,4.97
2022-10-05T19:08:12.273Z,7.28
2022-10-05T19:10:44.791Z,6.15
2022-10-05T19:13:21.263Z,11.25
2022-10-05T19:15:54.593Z,14.30
2022-10-05T19:18:34.674Z,7.95
2022-10-05T19:21:09.085Z,6.70
2022-10-05T19:23:49.203Z,13.68
2022-10-05T19:26:22.458Z,11.05
2022-10-05T19:29:01.518Z,7.00
2022-10-05T19:31:43.974Z,9.05
2022-10-05T19:34:20.802Z,10.32
2022-10-05T19:37:02.166Z,13.38
2022-10-05T19:39:36.303Z,8.63
2022-10-05T19:42:12.311Z,8.60
2022-10-05T19:45:06.330Z,7.97
2022-10-05T19:47:41.566Z,10.73
2022-10-05T19:50:21.327Z,10.48
2022-10-05T19:53:14.874Z,6.95
2022-10-05T19:55:51.523Z,6.72
2022-10-05T19:58:28.315Z,4.53
2022-10-05T20:00:59.413Z,8.00
2022-10-05T20:03:29.266Z,5.25
2022-10-05T20:06:00.180Z,2.65
2022-10-05T20:08:32.545Z,3.78
2022-10-05T20:11:30.750Z,5.63
2022-10-05T20:14:19.749Z,5.05
2022-10-05T20:17:46.678Z,3.15
2022-10-05T20:20:50.945Z,3.88
2022-10-05T20:23:26.025Z,5.82
2022-10-05T20:26:17.530Z,4.50
2022-10-05T20:28:48.291Z,5.18
2022-10-05T20:31:20.315Z,2.45
2022-10-05T20:33:52.271Z,2.28
2022-10-05T20:36:24.346Z,4.28
2022-10-05T20:38:54.076Z,2.67
2022-10-05T20:41:22.489Z,2.55
2022-10-05T20:43:51.831Z,8.87
2022-10-05T20:46:21.443Z,6.68
2022-10-05T20:49:02.303Z,4.20
2022-10-05T20:51:38.255Z,2.90
2022-10-05T20:54:08.488Z,4.07
2022-10-05T20:56:39.203Z,5.22
2022-10-05T20:59:08.717Z,2.08
2022-10-05T21:01:37.108Z,3.88
2022-10-05T21:04:16.322Z,4.85
2022-10-05T21:07:05.648Z,6.68
2022-10-05T21:09:38.095Z,5.05
2022-10-05T21:12:10.318Z,6.05
2022-10-05T21:14:42.535Z,11.07
2022-10-05T21:17:14.570Z,7.80
2022-10-05T21:20:26.855Z,11.73
2022-10-05T21:22:55.841Z,8.93
2022-10-05T21:25:29.248Z,9.52
2022-10-05T21:28:17.830Z,8.95
2022-10-05T21:30:49.144Z,11.32
2022-10-05T21:33:18.043Z,7.40
2022-10-05T21:35:50.714Z,15.85
2022-10-05T21:38:20.712Z,9.48
2022-10-05T21:40:50.137Z,12.48
2022-10-05T21:43:27.291Z,12.88
2022-10-05T21:46:21.983Z,10.35
2022-10-05T21:48:52.655Z,9.57
2022-10-05T21:51:25.124Z,6.30
2022-10-05T21:53:54.454Z,11.98
2022-10-05T21:56:33.188Z,14.98
2022-10-05T21:59:05.412Z,10.27
2022-10-05T22:01:38.193Z,11.83
2022-10-05T22:04:07.890Z,12.13
2022-10-05T22:06:39.257Z,12.55
2022-10-05T22:09:08.065Z,13.88
2022-10-05T22:11:57.417Z,11.13
2022-10-05T22:14:28.950Z,10.75
2022-10-05T22:16:57.580Z,8.85
2022-10-05T22:19:26.248Z,8.48
2022-10-05T22:22:17.478Z,9.02
2022-10-05T22:24:46.665Z,9.73
2022-10-05T22:27:17.530Z,17.05
2022-10-05T22:29:46.385Z,8.63
2022-10-05T22:32:14.994Z,18.85
2022-10-05T22:34:46.400Z,8.00
2022-10-05T22:37:18.220Z,11.32
2022-10-05T22:39:49.154Z,12.80
2022-10-05T22:42:40.686Z,14.88
2022-10-05T22:45:32.611Z,16.63
2022-10-05T22:48:06.124Z,7.65
2022-10-05T22:50:34.907Z,11.35
2022-10-05T22:55:48.277Z,11.27
2022-10-05T22:58:21.178Z,12.32
2022-10-05T23:00:58.494Z,12.60
2022-10-05T23:03:27.720Z,8.02
2022-10-05T23:06:05.364Z,9.45
2022-10-05T23:08:56.385Z,18.73
2022-10-05T23:11:27.748Z,10.88
2022-10-05T23:13:57.362Z,10.88
2022-10-05T23:16:30.394Z,12.43
2022-10-05T23:19:01.836Z,11.45
2022-10-05T23:21:32.636Z,8.52
2022-10-05T23:24:03.297Z,13.40
2022-10-05T23:26:32.349Z,14.05
2022-10-05T23:29:01.481Z,7.88
2022-10-05T23:31:31.862Z,7.85
2022-10-05T23:34:03.602Z,8.27
2022-10-05T23:36:35.868Z,8.30
2022-10-05T23:39:05.890Z,9.05
2022-10-05T23:41:35.809Z,12.75
2022-10-05T23:44:11.955Z,7.57
2022-10-05T23:46:40.576Z,12.38
2022-10-05T23:49:10.340Z,9.63
2022-10-05T23:51:41.448Z,4.60
2022-10-05T23:54:24.471Z,10.07
2022-10-05T23:56:53.144Z,9.70
2022-10-05T23:59:29.657Z,11.10
